sensor_id;sensor_type;location;lat;lon;timestamp;temperature;humidity
8269;DHT22;4174;48.304;16.364;2022-09-09T00:03:57;16.20;99.90
8269;DHT22;4174;48.304;16.364;2022-09-09T00:10:09;16.20;99.90
8269;DHT22;4174;48.304;16.364;2022-09-09T00:16:12;16.20;99.90
8269;DHT22;4174;48.304;16.364;2022-09-09T00:22:19;16.20;99.90
8269;DHT22;4174;48.304;16.364;2022-09-09T00:28:22;16.30;99.90
8269;DHT22;4174;48.304;16.364;2022-09-09T00:34:24;16.20;99.90
8269;DHT22;4174;48.304;16.364;2022-09-09T00:40:29;16.10;99.90
8269;DHT22;4174;48.304;16.364;2022-09-09T00:46:37;16.00;99.90
8269;DHT22;4174;48.304;16.364;2022-09-09T00:52:45;15.70;99.90
8269;DHT22;4174;48.304;16.364;2022-09-09T00:58:50;15.70;99.90
8269;DHT22;4174;48.304;16.364;2022-09-09T01:04:49;15.60;99.90
8269;DHT22;4174;48.304;16.364;2022-09-09T01:10:53;15.50;99.90
8269;DHT22;4174;48.304;16.364;2022-09-09T01:16:55;15.40;99.90
8269;DHT22;4174;48.304;16.364;2022-09-09T01:23:04;15.30;99.90
8269;DHT22;4174;48.304;16.364;2022-09-09T01:29:17;15.30;99.90
8269;DHT22;4174;48.304;16.364;2022-09-09T01:35:29;15.10;99.90
8269;DHT22;4174;48.304;16.364;2022-09-09T01:41:29;15.10;99.90
8269;DHT22;4174;48.304;16.364;2022-09-09T01:47:32;15.00;99.90
8269;DHT22;4174;48.304;16.364;2022-09-09T01:53:35;14.90;99.90
8269;DHT22;4174;48.304;16.364;2022-09-09T02:06:08;14.70;99.90
8269;DHT22;4174;48.304;16.364;2022-09-09T02:12:13;14.70;99.90
8269;DHT22;4174;48.304;16.364;2022-09-09T02:18:15;14.70;99.90
8269;DHT22;4174;48.304;16.364;2022-09-09T02:24:16;14.60;99.90
8269;DHT22;4174;48.304;16.364;2022-09-09T02:30:19;14.60;99.90
8269;DHT22;4174;48.304;16.364;2022-09-09T02:36:22;14.50;99.90
8269;DHT22;4174;48.304;16.364;2022-09-09T02:42:24;14.40;99.90
8269;DHT22;4174;48.304;16.364;2022-09-09T02:48:30;14.40;99.90
8269;DHT22;4174;48.304;16.364;2022-09-09T02:54:47;14.30;99.90
8269;DHT22;4174;48.304;16.364;2022-09-09T03:00:50;14.30;99.90
8269;DHT22;4174;48.304;16.364;2022-09-09T03:06:52;14.30;99.90
8269;DHT22;4174;48.304;16.364;2022-09-09T03:12:54;14.30;99.90
8269;DHT22;4174;48.304;16.364;2022-09-09T03:18:57;14.30;99.90
8269;DHT22;4174;48.304;16.364;2022-09-09T03:25:00;14.30;99.90
8269;DHT22;4174;48.304;16.364;2022-09-09T03:31:03;14.20;99.90
8269;DHT22;4174;48.304;16.364;2022-09-09T03:37:04;14.20;99.90
8269;DHT22;4174;48.304;16.364;2022-09-09T03:43:07;14.20;99.90
8269;DHT22;4174;48.304;16.364;2022-09-09T03:49:09;14.10;99.90
8269;DHT22;4174;48.304;16.364;2022-09-09T03:55:12;14.10;99.90
8269;DHT22;4174;48.304;16.364;2022-09-09T04:01:15;14.00;99.90
8269;DHT22;4174;48.304;16.364;2022-09-09T04:07:18;14.00;99.90
8269;DHT22;4174;48.304;16.364;2022-09-09T04:13:21;13.90;99.90
8269;DHT22;4174;48.304;16.364;2022-09-09T04:19:24;13.70;99.90
8269;DHT22;4174;48.304;16.364;2022-09-09T04:25:27;13.60;99.90
8269;DHT22;4174;48.304;16.364;2022-09-09T04:31:31;13.40;99.90
8269;DHT22;4174;48.304;16.364;2022-09-09T04:37:34;13.40;99.90
8269;DHT22;4174;48.304;16.364;2022-09-09T04:43:37;13.40;99.90
8269;DHT22;4174;48.304;16.364;2022-09-09T04:49:39;13.40;99.90
8269;DHT22;4174;48.304;16.364;2022-09-09T04:55:42;13.30;99.90
8269;DHT22;4174;48.304;16.364;2022-09-09T05:01:45;13.30;99.90
8269;DHT22;4174;48.304;16.364;2022-09-09T05:07:49;13.30;99.90
8269;DHT22;4174;48.304;16.364;2022-09-09T05:13:52;13.30;99.90
8269;DHT22;4174;48.304;16.364;2022-09-09T05:19:55;13.30;99.90
8269;DHT22;4174;48.304;16.364;2022-09-09T05:25:58;13.50;99.90
8269;DHT22;4174;48.304;16.364;2022-09-09T05:32:01;13.70;99.90
8269;DHT22;4174;48.304;16.364;2022-09-09T05:38:04;14.00;99.90
8269;DHT22;4174;48.304;16.364;2022-09-09T05:44:07;14.40;99.90
8269;DHT22;4174;48.304;16.364;2022-09-09T05:50:10;14.40;99.90
8269;DHT22;4174;48.304;16.364;2022-09-09T05:56:16;15.30;99.90
8269;DHT22;4174;48.304;16.364;2022-09-09T06:02:16;16.20;99.90
8269;DHT22;4174;48.304;16.364;2022-09-09T06:08:20;17.10;99.90
8269;DHT22;4174;48.304;16.364;2022-09-09T06:14:23;17.00;99.90
8269;DHT22;4174;48.304;16.364;2022-09-09T06:20:26;17.10;99.90
8269;DHT22;4174;48.304;16.364;2022-09-09T06:26:30;17.10;99.90
8269;DHT22;4174;48.304;16.364;2022-09-09T06:32:32;17.40;99.90
8269;DHT22;4174;48.304;16.364;2022-09-09T06:38:34;18.90;99.90
8269;DHT22;4174;48.304;16.364;2022-09-09T06:44:38;22.00;99.90
8269;DHT22;4174;48.304;16.364;2022-09-09T06:50:41;22.00;99.90
8269;DHT22;4174;48.304;16.364;2022-09-09T06:56:45;23.60;99.90
8269;DHT22;4174;48.304;16.364;2022-09-09T07:02:48;24.90;99.90
8269;DHT22;4174;48.304;16.364;2022-09-09T07:08:51;25.50;99.90
8269;DHT22;4174;48.304;16.364;2022-09-09T07:14:53;25.30;99.90
8269;DHT22;4174;48.304;16.364;2022-09-09T07:20:57;25.80;99.90
8269;DHT22;4174;48.304;16.364;2022-09-09T07:27:02;24.90;99.90
8269;DHT22;4174;48.304;16.364;2022-09-09T07:33:05;25.10;99.90
8269;DHT22;4174;48.304;16.364;2022-09-09T07:39:08;25.50;99.90
8269;DHT22;4174;48.304;16.364;2022-09-09T07:45:11;27.00;99.90
8269;DHT22;4174;48.304;16.364;2022-09-09T07:51:15;27.00;99.90
8269;DHT22;4174;48.304;16.364;2022-09-09T07:57:16;27.60;99.90
8269;DHT22;4174;48.304;16.364;2022-09-09T08:03:19;28.50;99.90
8269;DHT22;4174;48.304;16.364;2022-09-09T08:09:22;29.70;96.00
8269;DHT22;4174;48.304;16.364;2022-09-09T08:15:24;30.40;93.90
8269;DHT22;4174;48.304;16.364;2022-09-09T08:21:27;30.70;92.40
8269;DHT22;4174;48.304;16.364;2022-09-09T08:27:30;31.70;89.40
8269;DHT22;4174;48.304;16.364;2022-09-09T08:33:32;30.10;86.90
8269;DHT22;4174;48.304;16.364;2022-09-09T08:39:35;28.60;90.40
8269;DHT22;4174;48.304;16.364;2022-09-09T08:45:45;28.00;93.40
8269;DHT22;4174;48.304;16.364;2022-09-09T08:51:42;27.90;94.60
8269;DHT22;4174;48.304;16.364;2022-09-09T08:57:46;30.30;91.10
8269;DHT22;4174;48.304;16.364;2022-09-09T09:10:10;29.90;82.50
8269;DHT22;4174;48.304;16.364;2022-09-09T09:16:31;28.90;86.60
8269;DHT22;4174;48.304;16.364;2022-09-09T09:22:35;29.30;87.00
8269;DHT22;4174;48.304;16.364;2022-09-09T09:28:35;29.30;87.00
8269;DHT22;4174;48.304;16.364;2022-09-09T09:34:36;29.60;84.20
8269;DHT22;4174;48.304;16.364;2022-09-09T09:40:47;29.90;82.70
8269;DHT22;4174;48.304;16.364;2022-09-09T09:46:45;29.50;81.20
8269;DHT22;4174;48.304;16.364;2022-09-09T09:52:56;30.80;78.70
8269;DHT22;4174;48.304;16.364;2022-09-09T09:58:58;30.50;79.90
8269;DHT22;4174;48.304;16.364;2022-09-09T10:05:03;30.90;83.00
8269;DHT22;4174;48.304;16.364;2022-09-09T10:11:12;30.70;77.40
8269;DHT22;4174;48.304;16.364;2022-09-09T10:17:24;30.40;73.40
8269;DHT22;4174;48.304;16.364;2022-09-09T10:23:52;30.10;74.80
8269;DHT22;4174;48.304;16.364;2022-09-09T10:36:26;30.30;75.00
8269;DHT22;4174;48.304;16.364;2022-09-09T10:42:30;30.50;71.10
8269;DHT22;4174;48.304;16.364;2022-09-09T10:48:36;30.70;76.70
8269;DHT22;4174;48.304;16.364;2022-09-09T10:54:56;29.00;71.70
8269;DHT22;4174;48.304;16.364;2022-09-09T11:01:06;29.00;77.00
8269;DHT22;4174;48.304;16.364;2022-09-09T11:07:06;30.30;71.30
8269;DHT22;4174;48.304;16.364;2022-09-09T11:13:10;31.30;68.40
8269;DHT22;4174;48.304;16.364;2022-09-09T11:25:33;30.10;60.60
8269;DHT22;4174;48.304;16.364;2022-09-09T11:31:42;28.90;71.50
8269;DHT22;4174;48.304;16.364;2022-09-09T11:38:46;28.30;70.60
8269;DHT22;4174;48.304;16.364;2022-09-09T11:44:10;27.60;73.30
8269;DHT22;4174;48.304;16.364;2022-09-09T11:50:31;27.10;76.70
8269;DHT22;4174;48.304;16.364;2022-09-09T11:56:34;26.60;82.50
8269;DHT22;4174;48.304;16.364;2022-09-09T12:02:48;26.80;79.30
8269;DHT22;4174;48.304;16.364;2022-09-09T12:08:45;26.80;79.90
8269;DHT22;4174;48.304;16.364;2022-09-09T12:22:07;26.10;82.20
8269;DHT22;4174;48.304;16.364;2022-09-09T12:27:20;25.70;79.50
8269;DHT22;4174;48.304;16.364;2022-09-09T12:33:20;25.80;81.90
8269;DHT22;4174;48.304;16.364;2022-09-09T12:39:29;26.20;81.60
8269;DHT22;4174;48.304;16.364;2022-09-09T12:45:31;26.30;77.00
8269;DHT22;4174;48.304;16.364;2022-09-09T12:51:32;26.10;82.80
8269;DHT22;4174;48.304;16.364;2022-09-09T12:57:35;26.10;79.70
8269;DHT22;4174;48.304;16.364;2022-09-09T13:03:41;25.90;83.70
8269;DHT22;4174;48.304;16.364;2022-09-09T13:09:38;25.30;79.40
8269;DHT22;4174;48.304;16.364;2022-09-09T13:15:47;25.00;81.60
8269;DHT22;4174;48.304;16.364;2022-09-09T13:21:44;24.50;90.10
8269;DHT22;4174;48.304;16.364;2022-09-09T13:27:56;24.50;90.00
8269;DHT22;4174;48.304;16.364;2022-09-09T13:34:10;24.40;92.50
8269;DHT22;4174;48.304;16.364;2022-09-09T13:40:03;24.20;91.90
8269;DHT22;4174;48.304;16.364;2022-09-09T13:52:37;23.80;95.90
8269;DHT22;4174;48.304;16.364;2022-09-09T13:58:40;23.70;98.70
8269;DHT22;4174;48.304;16.364;2022-09-09T14:04:43;23.60;99.90
8269;DHT22;4174;48.304;16.364;2022-09-09T14:10:44;23.70;99.90
8269;DHT22;4174;48.304;16.364;2022-09-09T14:16:47;23.60;99.90
8269;DHT22;4174;48.304;16.364;2022-09-09T14:22:51;23.40;99.90
8269;DHT22;4174;48.304;16.364;2022-09-09T14:28:54;23.20;99.90
8269;DHT22;4174;48.304;16.364;2022-09-09T14:34:56;22.80;99.90
8269;DHT22;4174;48.304;16.364;2022-09-09T14:40:59;22.40;99.90
8269;DHT22;4174;48.304;16.364;2022-09-09T14:47:01;22.00;99.90
8269;DHT22;4174;48.304;16.364;2022-09-09T14:53:05;21.40;99.90
8269;DHT22;4174;48.304;16.364;2022-09-09T14:59:07;21.40;99.90
8269;DHT22;4174;48.304;16.364;2022-09-09T15:05:10;21.10;99.90
8269;DHT22;4174;48.304;16.364;2022-09-09T15:11:14;21.00;99.90
8269;DHT22;4174;48.304;16.364;2022-09-09T15:17:16;20.90;99.90
8269;DHT22;4174;48.304;16.364;2022-09-09T15:23:18;20.80;99.90
8269;DHT22;4174;48.304;16.364;2022-09-09T15:29:21;20.70;99.90
8269;DHT22;4174;48.304;16.364;2022-09-09T15:35:25;20.40;99.90
8269;DHT22;4174;48.304;16.364;2022-09-09T15:41:28;20.40;99.90
8269;DHT22;4174;48.304;16.364;2022-09-09T15:47:30;20.40;99.90
8269;DHT22;4174;48.304;16.364;2022-09-09T15:53:33;20.30;99.90
8269;DHT22;4174;48.304;16.364;2022-09-09T15:59:36;20.40;99.90
8269;DHT22;4174;48.304;16.364;2022-09-09T16:05:39;20.40;99.90
8269;DHT22;4174;48.304;16.364;2022-09-09T16:11:42;20.30;99.90
8269;DHT22;4174;48.304;16.364;2022-09-09T16:17:45;20.10;99.90
8269;DHT22;4174;48.304;16.364;2022-09-09T16:23:48;19.90;99.90
8269;DHT22;4174;48.304;16.364;2022-09-09T16:29:50;19.80;99.90
8269;DHT22;4174;48.304;16.364;2022-09-09T16:35:53;19.80;99.90
8269;DHT22;4174;48.304;16.364;2022-09-09T16:41:56;19.70;99.90
8269;DHT22;4174;48.304;16.364;2022-09-09T16:47:59;19.50;99.90
8269;DHT22;4174;48.304;16.364;2022-09-09T16:54:03;19.40;99.90
8269;DHT22;4174;48.304;16.364;2022-09-09T17:00:06;19.10;99.90
8269;DHT22;4174;48.304;16.364;2022-09-09T17:06:11;19.00;99.90
8269;DHT22;4174;48.304;16.364;2022-09-09T17:12:12;19.00;99.90
8269;DHT22;4174;48.304;16.364;2022-09-09T17:18:16;18.80;99.90
8269;DHT22;4174;48.304;16.364;2022-09-09T17:24:19;18.70;99.90
8269;DHT22;4174;48.304;16.364;2022-09-09T17:30:22;18.60;99.90
8269;DHT22;4174;48.304;16.364;2022-09-09T17:36:26;18.50;99.90
8269;DHT22;4174;48.304;16.364;2022-09-09T17:42:28;18.40;99.90
8269;DHT22;4174;48.304;16.364;2022-09-09T17:48:30;18.20;99.90
8269;DHT22;4174;48.304;16.364;2022-09-09T17:54:33;18.10;99.90
8269;DHT22;4174;48.304;16.364;2022-09-09T18:00:36;17.90;99.90
8269;DHT22;4174;48.304;16.364;2022-09-09T18:06:41;17.70;99.90
8269;DHT22;4174;48.304;16.364;2022-09-09T18:12:44;17.40;99.90
8269;DHT22;4174;48.304;16.364;2022-09-09T18:18:47;17.30;99.90
8269;DHT22;4174;48.304;16.364;2022-09-09T18:24:49;17.10;99.90
8269;DHT22;4174;48.304;16.364;2022-09-09T18:30:53;16.80;99.90
8269;DHT22;4174;48.304;16.364;2022-09-09T18:36:56;16.80;99.90
8269;DHT22;4174;48.304;16.364;2022-09-09T18:42:58;16.90;99.90
8269;DHT22;4174;48.304;16.364;2022-09-09T18:49:01;16.80;99.90
8269;DHT22;4174;48.304;16.364;2022-09-09T18:55:03;16.80;99.90
8269;DHT22;4174;48.304;16.364;2022-09-09T19:01:09;16.80;99.90
8269;DHT22;4174;48.304;16.364;2022-09-09T19:07:12;16.70;99.90
8269;DHT22;4174;48.304;16.364;2022-09-09T19:13:16;16.70;99.90
8269;DHT22;4174;48.304;16.364;2022-09-09T19:19:20;16.80;99.90
8269;DHT22;4174;48.304;16.364;2022-09-09T19:25:20;16.70;99.90
8269;DHT22;4174;48.304;16.364;2022-09-09T19:31:24;16.70;99.90
8269;DHT22;4174;48.304;16.364;2022-09-09T19:37:26;16.60;99.90
8269;DHT22;4174;48.304;16.364;2022-09-09T19:43:28;16.60;99.90
8269;DHT22;4174;48.304;16.364;2022-09-09T19:49:32;16.40;99.90
8269;DHT22;4174;48.304;16.364;2022-09-09T19:55:37;16.40;99.90
8269;DHT22;4174;48.304;16.364;2022-09-09T20:01:37;16.40;99.90
8269;DHT22;4174;48.304;16.364;2022-09-09T20:07:39;16.40;99.90
8269;DHT22;4174;48.304;16.364;2022-09-09T20:13:42;16.40;99.90
8269;DHT22;4174;48.304;16.364;2022-09-09T20:19:46;16.30;99.90
8269;DHT22;4174;48.304;16.364;2022-09-09T20:25:49;16.30;99.90
8269;DHT22;4174;48.304;16.364;2022-09-09T20:31:52;16.30;99.90
8269;DHT22;4174;48.304;16.364;2022-09-09T20:37:54;16.30;99.90
8269;DHT22;4174;48.304;16.364;2022-09-09T20:43:58;16.30;99.90
8269;DHT22;4174;48.304;16.364;2022-09-09T20:50:02;16.20;99.90
8269;DHT22;4174;48.304;16.364;2022-09-09T20:56:06;16.20;99.90
8269;DHT22;4174;48.304;16.364;2022-09-09T21:02:08;16.20;99.90
8269;DHT22;4174;48.304;16.364;2022-09-09T21:08:10;16.20;99.90
8269;DHT22;4174;48.304;16.364;2022-09-09T21:14:13;16.10;99.90
8269;DHT22;4174;48.304;16.364;2022-09-09T21:20:15;16.00;99.90
8269;DHT22;4174;48.304;16.364;2022-09-09T21:26:18;15.90;99.90
8269;DHT22;4174;48.304;16.364;2022-09-09T21:32:21;15.90;99.90
8269;DHT22;4174;48.304;16.364;2022-09-09T21:38:25;15.90;99.90
8269;DHT22;4174;48.304;16.364;2022-09-09T21:44:28;15.90;99.90
8269;DHT22;4174;48.304;16.364;2022-09-09T21:50:35;15.90;99.90
8269;DHT22;4174;48.304;16.364;2022-09-09T21:56:44;15.90;99.90
8269;DHT22;4174;48.304;16.364;2022-09-09T22:02:47;15.80;99.90
8269;DHT22;4174;48.304;16.364;2022-09-09T22:08:50;15.80;99.90
8269;DHT22;4174;48.304;16.364;2022-09-09T22:14:52;15.90;99.90
8269;DHT22;4174;48.304;16.364;2022-09-09T22:20:55;15.90;99.90
8269;DHT22;4174;48.304;16.364;2022-09-09T22:26:57;15.90;99.90
8269;DHT22;4174;48.304;16.364;2022-09-09T22:33:00;15.90;99.90
8269;DHT22;4174;48.304;16.364;2022-09-09T22:39:03;15.90;99.90
8269;DHT22;4174;48.304;16.364;2022-09-09T22:45:06;15.90;99.90
8269;DHT22;4174;48.304;16.364;2022-09-09T22:51:12;15.90;99.90
8269;DHT22;4174;48.304;16.364;2022-09-09T22:57:12;15.90;99.90
8269;DHT22;4174;48.304;16.364;2022-09-09T23:03:16;15.90;99.90
8269;DHT22;4174;48.304;16.364;2022-09-09T23:09:18;15.90;99.90
8269;DHT22;4174;48.304;16.364;2022-09-09T23:15:21;15.90;99.90
8269;DHT22;4174;48.304;16.364;2022-09-09T23:21:24;15.90;99.90
8269;DHT22;4174;48.304;16.364;2022-09-09T23:27:26;15.90;99.90
8269;DHT22;4174;48.304;16.364;2022-09-09T23:33:29;15.90;99.90
8269;DHT22;4174;48.304;16.364;2022-09-09T23:39:32;15.90;99.90
8269;DHT22;4174;48.304;16.364;2022-09-09T23:45:34;16.00;99.90
8269;DHT22;4174;48.304;16.364;2022-09-09T23:51:39;16.00;99.90
8269;DHT22;4174;48.304;16.364;2022-09-09T23:57:42;16.00;99.90
